createdAt,value
2019-06-07T00:02:21.835Z,12.40
2019-06-07T00:04:51.847Z,12.40
2019-06-07T00:07:22.008Z,12.40
2019-06-07T00:09:52.348Z,12.40
2019-06-07T00:12:22.048Z,12.40
2019-06-07T00:14:52.285Z,12.40
2019-06-07T00:17:22.040Z,12.30
2019-06-07T00:19:51.820Z,12.30
2019-06-07T00:22:32.455Z,12.30
2019-06-07T00:24:53.486Z,12.30
2019-06-07T00:27:23.262Z,12.30
2019-06-07T00:29:53.371Z,12.40
2019-06-07T00:32:23.311Z,12.40
2019-06-07T00:34:53.443Z,12.40
2019-06-07T00:37:25.555Z,12.30
2019-06-07T00:40:13.595Z,12.30
2019-06-07T00:42:26.820Z,12.30
2019-06-07T00:44:56.574Z,12.30
2019-06-07T00:47:26.442Z,12.20
2019-06-07T00:49:56.297Z,12.20
2019-06-07T00:54:57.680Z,12.00
2019-06-07T00:57:27.682Z,12.00
2019-06-07T00:59:57.721Z,12.00
2019-06-07T01:02:31.281Z,12.00
2019-06-07T01:04:59.375Z,12.00
2019-06-07T01:07:29.235Z,12.00
2019-06-07T01:09:58.842Z,12.00
2019-06-07T01:12:28.691Z,12.00
2019-06-07T01:14:58.995Z,12.00
2019-06-07T01:17:43.867Z,11.90
2019-06-07T01:20:02.572Z,11.90
2019-06-07T01:22:32.354Z,11.90
2019-06-07T01:25:02.018Z,11.80
2019-06-07T01:27:32.151Z,11.70
2019-06-07T01:30:01.934Z,11.70
2019-06-07T01:32:31.981Z,11.70
2019-06-07T01:35:01.901Z,11.50
2019-06-07T01:37:31.652Z,11.50
2019-06-07T01:40:01.255Z,11.40
2019-06-07T01:42:31.228Z,11.40
2019-06-07T01:45:01.196Z,11.40
2019-06-07T01:47:32.080Z,11.40
2019-06-07T01:50:02.571Z,11.40
2019-06-07T01:52:32.341Z,11.40
2019-06-07T01:55:02.094Z,11.40
2019-06-07T01:57:45.377Z,11.30
2019-06-07T02:00:04.351Z,11.30
2019-06-07T02:02:35.615Z,11.30
2019-06-07T02:05:06.772Z,11.30
2019-06-07T02:07:36.941Z,11.20
2019-06-07T02:10:11.071Z,11.20
2019-06-07T02:12:43.467Z,11.20
2019-06-07T02:15:12.719Z,11.20
2019-06-07T02:17:42.466Z,11.20
2019-06-07T02:20:12.924Z,11.10
2019-06-07T02:22:42.560Z,11.10
2019-06-07T02:25:38.361Z,11.00
2019-06-07T02:27:43.792Z,11.00
2019-06-07T02:32:45.840Z,11.00
2019-06-07T02:35:15.872Z,11.00
2019-06-07T02:37:45.531Z,11.00
2019-06-07T02:40:15.386Z,10.90
2019-06-07T02:42:45.086Z,10.90
2019-06-07T02:45:16.692Z,10.90
2019-06-07T02:47:47.927Z,10.90
2019-06-07T02:50:18.630Z,10.80
2019-06-07T02:52:49.113Z,10.80
2019-06-07T02:55:18.897Z,10.90
2019-06-07T02:57:48.478Z,10.90
2019-06-07T03:00:58.899Z,10.90
2019-06-07T03:03:10.952Z,10.90
2019-06-07T03:05:43.711Z,10.90
2019-06-07T03:08:16.131Z,10.90
2019-06-07T03:10:48.593Z,10.90
2019-06-07T03:13:20.961Z,10.90
2019-06-07T03:15:56.090Z,10.90
2019-06-07T03:18:43.964Z,10.90
2019-06-07T03:21:18.306Z,11.00
2019-06-07T03:23:48.649Z,11.00
2019-06-07T03:26:19.470Z,11.00
2019-06-07T03:28:49.146Z,11.00
2019-06-07T03:31:18.832Z,11.10
2019-06-07T03:33:48.330Z,11.10
2019-06-07T03:36:23.870Z,11.10
2019-06-07T03:38:49.720Z,11.10
2019-06-07T03:41:19.577Z,11.10
2019-06-07T03:43:49.131Z,11.10
2019-06-07T03:46:18.941Z,11.10
2019-06-07T03:48:48.535Z,11.10
2019-06-07T03:51:25.168Z,11.20
2019-06-07T03:53:49.630Z,11.30
2019-06-07T03:56:19.271Z,11.80
2019-06-07T03:58:50.425Z,12.90
2019-06-07T04:01:20.526Z,13.80
2019-06-07T04:03:51.683Z,13.90
2019-06-07T04:06:21.869Z,14.50
2019-06-07T04:08:51.624Z,15.20
2019-06-07T04:11:21.289Z,15.60
2019-06-07T04:13:51.329Z,16.20
2019-06-07T04:16:20.961Z,16.70
2019-06-07T04:18:50.560Z,16.70
2019-06-07T04:21:20.225Z,17.60
2019-06-07T04:23:49.931Z,17.30
2019-06-07T04:26:19.711Z,17.50
2019-06-07T04:31:22.261Z,18.50
2019-06-07T04:33:52.142Z,18.30
2019-06-07T04:36:39.455Z,17.70
2019-06-07T04:38:54.431Z,18.90
2019-06-07T04:41:26.239Z,18.40
2019-06-07T04:43:58.358Z,19.90
2019-06-07T04:46:33.883Z,21.00
2019-06-07T04:49:05.000Z,20.40
2019-06-07T04:51:37.220Z,20.20
2019-06-07T04:54:07.238Z,21.10
2019-06-07T04:56:38.489Z,20.90
2019-06-07T04:59:08.382Z,21.10
2019-06-07T05:01:41.438Z,20.80
2019-06-07T05:04:10.794Z,22.00
2019-06-07T05:06:42.444Z,21.20
2019-06-07T05:09:12.363Z,21.70
2019-06-07T05:11:44.970Z,22.60
2019-06-07T05:14:13.755Z,22.30
2019-06-07T05:16:44.561Z,22.10
2019-06-07T05:19:15.676Z,21.90
2019-06-07T05:22:02.841Z,19.80
2019-06-07T05:24:16.705Z,22.10
2019-06-07T05:26:46.388Z,21.80
2019-06-07T05:29:16.265Z,20.80
2019-06-07T05:31:46.124Z,21.50
2019-06-07T05:34:16.343Z,21.90
2019-06-07T05:36:46.135Z,20.30
2019-06-07T05:39:17.734Z,18.70
2019-06-07T05:41:47.469Z,18.40
2019-06-07T05:44:17.128Z,18.90
2019-06-07T05:46:47.705Z,20.80
2019-06-07T05:49:17.757Z,21.20
2019-06-07T05:51:47.592Z,21.30
2019-06-07T05:54:17.188Z,21.40
2019-06-07T05:56:46.956Z,22.70
2019-06-07T05:59:17.035Z,20.00
2019-06-07T06:01:58.977Z,21.60
2019-06-07T06:04:18.287Z,23.60
2019-06-07T06:06:47.944Z,22.90
2019-06-07T06:09:18.169Z,22.60
2019-06-07T06:11:59.657Z,22.70
2019-06-07T06:14:19.512Z,22.80
2019-06-07T06:16:50.014Z,23.20
2019-06-07T06:19:20.168Z,23.60
2019-06-07T06:21:50.004Z,23.20
2019-06-07T06:24:19.605Z,24.80
2019-06-07T06:26:54.750Z,24.80
2019-06-07T06:29:20.733Z,23.50
2019-06-07T06:32:39.856Z,23.50
2019-06-07T06:34:22.056Z,21.00
2019-06-07T06:36:51.710Z,21.90
2019-06-07T06:39:21.614Z,22.80
2019-06-07T06:42:01.674Z,22.50
2019-06-07T06:44:22.754Z,23.50
2019-06-07T06:46:58.312Z,22.20
2019-06-07T06:49:24.710Z,24.00
2019-06-07T06:51:54.359Z,24.50
2019-06-07T06:54:40.236Z,23.70
2019-06-07T06:57:17.202Z,21.30
2019-06-07T06:59:38.780Z,22.50
2019-06-07T07:01:58.669Z,21.70
2019-06-07T07:04:28.399Z,22.80
2019-06-07T07:06:58.473Z,22.40
2019-06-07T07:09:29.076Z,23.20
2019-06-07T07:12:11.074Z,22.40
2019-06-07T07:14:30.594Z,22.20
2019-06-07T07:17:00.356Z,21.50
2019-06-07T07:19:30.142Z,20.90
2019-06-07T07:21:59.773Z,21.60
2019-06-07T07:24:29.502Z,21.40
2019-06-07T07:26:59.118Z,22.30
2019-06-07T07:29:28.874Z,21.20
2019-06-07T07:31:58.511Z,21.10
2019-06-07T07:34:35.323Z,21.60
2019-06-07T07:37:00.105Z,20.40
2019-06-07T07:39:29.964Z,22.30
2019-06-07T07:42:17.869Z,22.20
2019-06-07T07:44:31.442Z,22.40
2019-06-07T07:47:01.188Z,20.90
2019-06-07T07:49:30.926Z,20.50
2019-06-07T07:52:00.638Z,20.60
2019-06-07T07:54:30.350Z,20.50
2019-06-07T07:57:00.102Z,20.90
2019-06-07T07:59:41.757Z,21.10
2019-06-07T08:02:01.387Z,20.30
2019-06-07T08:05:13.002Z,21.00
2019-06-07T08:07:02.728Z,21.30
2019-06-07T08:09:32.473Z,21.00
2019-06-07T08:12:02.685Z,20.10
2019-06-07T08:14:32.648Z,19.60
2019-06-07T08:17:02.273Z,19.80
2019-06-07T08:19:31.858Z,20.00
2019-06-07T08:22:01.856Z,19.80
2019-06-07T08:24:31.650Z,19.20
2019-06-07T08:27:24.823Z,18.90
2019-06-07T08:29:44.338Z,19.50
2019-06-07T08:32:04.223Z,19.10
2019-06-07T08:34:34.035Z,18.90
2019-06-07T08:37:03.626Z,18.90
2019-06-07T08:39:33.381Z,19.30
2019-06-07T08:42:15.365Z,19.50
2019-06-07T08:44:34.363Z,20.20
2019-06-07T08:47:20.085Z,19.70
2019-06-07T08:49:40.489Z,19.60
2019-06-07T08:52:12.740Z,19.80
2019-06-07T08:54:42.594Z,19.90
2019-06-07T08:57:21.385Z,19.80
2019-06-07T08:59:44.744Z,20.40
2019-06-07T09:02:23.273Z,19.70
2019-06-07T09:04:45.813Z,19.50
2019-06-07T09:07:19.859Z,20.20
2019-06-07T09:09:47.044Z,21.10
2019-06-07T09:12:17.072Z,21.40
2019-06-07T09:14:59.938Z,20.80
2019-06-07T09:17:19.509Z,20.60
2019-06-07T09:19:49.155Z,20.60
2019-06-07T09:22:19.545Z,20.80
2019-06-07T09:24:49.140Z,20.30
2019-06-07T09:27:20.271Z,20.80
2019-06-07T09:29:50.441Z,21.40
2019-06-07T09:32:20.128Z,20.70
2019-06-07T09:34:50.014Z,20.50
2019-06-07T09:38:03.776Z,20.60
2019-06-07T09:39:59.556Z,20.70
2019-06-07T09:42:29.038Z,21.20
2019-06-07T09:45:05.664Z,20.50
2019-06-07T09:47:37.462Z,20.90
2019-06-07T09:50:12.160Z,20.90
2019-06-07T09:52:57.944Z,20.80
2019-06-07T09:55:23.756Z,20.90
2019-06-07T09:57:44.618Z,20.60
2019-06-07T10:00:39.801Z,20.50
2019-06-07T10:02:55.701Z,21.20
2019-06-07T10:05:25.522Z,20.30
2019-06-07T10:08:04.125Z,20.80
2019-06-07T10:13:01.776Z,20.80
2019-06-07T10:15:34.156Z,21.20
2019-06-07T10:18:04.902Z,20.80
2019-06-07T10:20:36.513Z,20.90
2019-06-07T10:23:11.052Z,20.60
2019-06-07T10:25:43.128Z,21.00
2019-06-07T10:28:15.364Z,21.30
2019-06-07T10:30:46.092Z,20.80
2019-06-07T10:33:25.560Z,21.10
2019-06-07T10:35:57.132Z,21.10
2019-06-07T10:38:30.293Z,21.00
2019-06-07T10:41:08.929Z,20.60
2019-06-07T10:43:46.932Z,20.90
2019-06-07T10:46:23.323Z,20.30
2019-06-07T10:48:59.251Z,20.60
2019-06-07T10:51:29.200Z,21.00
2019-06-07T10:54:00.653Z,20.40
2019-06-07T10:56:30.463Z,20.60
2019-06-07T10:59:03.099Z,20.80
2019-06-07T11:01:33.111Z,20.90
2019-06-07T11:04:09.571Z,21.10
2019-06-07T11:06:44.084Z,20.60
2019-06-07T11:09:15.076Z,21.10
2019-06-07T11:11:45.521Z,20.90
2019-06-07T11:14:15.491Z,20.60
2019-06-07T11:16:45.313Z,20.80
2019-06-07T11:19:17.786Z,21.00
2019-06-07T11:21:48.039Z,21.00
2019-06-07T11:24:21.871Z,21.00
2019-06-07T11:26:52.252Z,21.20
2019-06-07T11:29:22.136Z,21.20
2019-06-07T11:31:52.250Z,21.00
2019-06-07T11:34:21.907Z,20.90
2019-06-07T11:36:51.557Z,21.00
2019-06-07T11:39:21.353Z,21.10
2019-06-07T11:41:51.059Z,21.20
2019-06-07T11:44:21.135Z,21.20
2019-06-07T11:46:53.162Z,21.50
2019-06-07T11:49:23.622Z,21.00
2019-06-07T11:51:53.916Z,21.20
2019-06-07T11:54:28.042Z,21.40
2019-06-07T11:56:59.457Z,21.80
2019-06-07T11:59:29.269Z,22.00
2019-06-07T12:02:01.126Z,22.00
2019-06-07T12:04:34.843Z,22.50
2019-06-07T12:07:04.174Z,22.10
2019-06-07T12:09:35.451Z,22.50
2019-06-07T12:12:08.203Z,22.10
2019-06-07T12:14:40.072Z,22.80
2019-06-07T12:17:11.265Z,22.70
2019-06-07T12:19:42.281Z,22.40
2019-06-07T12:22:17.832Z,22.60
2019-06-07T12:24:50.137Z,22.50
2019-06-07T12:27:20.837Z,22.30
2019-06-07T12:29:56.217Z,22.30
2019-06-07T12:32:29.566Z,22.80
2019-06-07T12:35:01.913Z,22.90
2019-06-07T12:37:43.843Z,22.80
2019-06-07T12:40:15.846Z,22.60
2019-06-07T12:42:54.699Z,22.50
2019-06-07T12:45:44.187Z,22.70
2019-06-07T12:48:04.611Z,22.60
2019-06-07T12:50:43.117Z,23.10
2019-06-07T12:53:09.120Z,23.10
2019-06-07T12:55:39.673Z,23.00
2019-06-07T12:58:09.512Z,22.80
2019-06-07T13:00:39.778Z,23.40
2019-06-07T13:03:09.476Z,23.20
2019-06-07T13:05:39.153Z,22.60
2019-06-07T13:08:08.782Z,22.50
2019-06-07T13:10:40.010Z,23.20
2019-06-07T13:13:09.954Z,23.20
2019-06-07T13:15:43.999Z,23.00
2019-06-07T13:18:19.785Z,23.20
2019-06-07T13:20:55.190Z,22.70
2019-06-07T13:23:29.197Z,22.70
2019-06-07T13:26:02.536Z,23.20
2019-06-07T13:28:32.591Z,23.50
2019-06-07T13:31:02.488Z,23.60
2019-06-07T13:36:24.379Z,23.60
2019-06-07T13:38:54.285Z,23.60
2019-06-07T13:41:36.866Z,23.60
2019-06-07T13:43:55.404Z,23.80
2019-06-07T13:46:25.394Z,23.80
2019-06-07T13:48:55.147Z,23.60
2019-06-07T13:51:26.555Z,23.60
2019-06-07T13:53:56.299Z,23.80
2019-06-07T13:56:26.108Z,23.80
2019-06-07T13:58:55.853Z,23.70
2019-06-07T14:01:27.235Z,23.60
2019-06-07T14:03:56.982Z,23.50
2019-06-07T14:06:27.976Z,24.00
2019-06-07T14:08:58.122Z,24.20
2019-06-07T14:11:28.016Z,24.50
2019-06-07T14:13:57.754Z,24.50
2019-06-07T14:16:28.339Z,24.50
2019-06-07T14:18:58.245Z,24.40
2019-06-07T14:21:28.763Z,23.70
2019-06-07T14:23:58.587Z,24.00
2019-06-07T14:26:29.426Z,24.20
2019-06-07T14:28:59.539Z,24.20
2019-06-07T14:31:35.296Z,23.80
2019-06-07T14:34:05.276Z,24.00
2019-06-07T14:36:35.003Z,24.30
2019-06-07T14:39:06.745Z,24.20
2019-06-07T14:41:36.382Z,24.40
2019-06-07T14:44:06.136Z,24.60
2019-06-07T14:46:35.819Z,23.90
2019-06-07T14:49:05.549Z,24.10
2019-06-07T14:51:35.358Z,24.00
2019-06-07T14:54:04.992Z,24.00
2019-06-07T14:56:35.294Z,24.20
2019-06-07T14:59:05.329Z,24.30
2019-06-07T15:01:54.575Z,24.10
2019-06-07T15:04:26.439Z,24.20
2019-06-07T15:06:56.326Z,24.60
2019-06-07T15:09:26.868Z,24.80
2019-06-07T15:11:57.311Z,24.60
2019-06-07T15:14:27.401Z,24.30
2019-06-07T15:16:57.314Z,24.20
2019-06-07T15:19:28.718Z,24.50
2019-06-07T15:21:58.633Z,24.40
2019-06-07T15:24:28.269Z,24.80
2019-06-07T15:26:58.228Z,24.90
2019-06-07T15:29:29.416Z,24.50
2019-06-07T15:31:59.748Z,24.60
2019-06-07T15:34:30.502Z,24.90
2019-06-07T15:37:00.530Z,24.80
2019-06-07T15:39:30.444Z,24.50
2019-06-07T15:42:00.725Z,24.60
2019-06-07T15:44:31.151Z,24.70
2019-06-07T15:47:01.432Z,24.60
2019-06-07T15:49:31.994Z,24.40
2019-06-07T15:52:01.765Z,24.30
2019-06-07T15:54:32.270Z,24.30
2019-06-07T15:57:02.062Z,24.60
2019-06-07T15:59:33.201Z,24.50
2019-06-07T16:02:03.196Z,24.30
2019-06-07T16:04:35.542Z,24.40
2019-06-07T16:07:07.170Z,24.60
2019-06-07T16:09:36.790Z,24.60
2019-06-07T16:12:06.880Z,24.40
2019-06-07T16:14:36.998Z,24.60
2019-06-07T16:17:06.695Z,24.60
2019-06-07T16:19:41.025Z,24.60
2019-06-07T16:22:07.978Z,24.40
2019-06-07T16:24:37.733Z,24.30
2019-06-07T16:27:07.431Z,24.30
2019-06-07T16:29:38.513Z,24.30
2019-06-07T16:32:08.427Z,24.00
2019-06-07T16:34:39.785Z,24.10
2019-06-07T16:37:09.419Z,24.00
2019-06-07T16:39:40.212Z,23.80
2019-06-07T16:42:09.766Z,23.80
2019-06-07T16:44:40.608Z,23.70
2019-06-07T16:47:10.528Z,23.70
2019-06-07T16:49:40.754Z,23.50
2019-06-07T16:52:10.661Z,23.50
2019-06-07T16:54:41.474Z,23.70
2019-06-07T16:57:11.335Z,23.80
2019-06-07T16:59:41.077Z,24.00
2019-06-07T17:02:11.136Z,24.10
2019-06-07T17:04:41.602Z,24.10
2019-06-07T17:07:11.567Z,23.90
2019-06-07T17:09:42.232Z,23.90
2019-06-07T17:12:13.172Z,24.10
2019-06-07T17:14:44.501Z,24.10
2019-06-07T17:17:14.470Z,23.90
2019-06-07T17:19:44.992Z,24.00
2019-06-07T17:22:14.668Z,24.00
2019-06-07T17:24:45.511Z,23.80
2019-06-07T17:27:15.277Z,23.60
2019-06-07T17:29:45.814Z,23.60
2019-06-07T17:32:16.104Z,23.60
2019-06-07T17:34:46.212Z,23.50
2019-06-07T17:37:15.831Z,23.40
2019-06-07T17:39:46.843Z,23.30
2019-06-07T17:42:16.658Z,23.20
2019-06-07T17:44:47.127Z,23.20
2019-06-07T17:47:17.424Z,23.30
2019-06-07T17:49:47.821Z,23.30
2019-06-07T17:52:17.634Z,23.30
2019-06-07T17:54:47.983Z,23.30
2019-06-07T17:57:17.660Z,23.30
2019-06-07T17:59:48.537Z,23.30
2019-06-07T18:02:18.353Z,23.40
2019-06-07T18:04:49.161Z,23.30
2019-06-07T18:07:21.449Z,23.30
2019-06-07T18:09:51.645Z,23.20
2019-06-07T18:12:24.519Z,22.90
2019-06-07T18:14:54.323Z,22.60
2019-06-07T18:17:34.145Z,22.20
2019-06-07T18:19:55.350Z,22.00
2019-06-07T18:22:25.355Z,21.80
2019-06-07T18:24:55.039Z,21.50
2019-06-07T18:27:24.877Z,21.30
2019-06-07T18:29:54.799Z,20.20
2019-06-07T18:32:24.647Z,18.80
2019-06-07T18:34:55.084Z,18.00
2019-06-07T18:37:25.225Z,17.80
2019-06-07T18:40:00.380Z,17.40
2019-06-07T18:42:30.419Z,17.20
2019-06-07T18:45:00.087Z,17.00
2019-06-07T18:47:30.081Z,17.00
2019-06-07T18:50:00.073Z,17.00
2019-06-07T18:52:31.373Z,16.90
2019-06-07T18:55:01.303Z,16.80
2019-06-07T18:57:33.523Z,16.80
2019-06-07T19:00:05.572Z,16.80
2019-06-07T19:02:38.982Z,16.80
2019-06-07T19:05:09.959Z,16.70
2019-06-07T19:07:39.851Z,16.60
2019-06-07T19:10:12.684Z,16.30
2019-06-07T19:12:42.455Z,16.20
2019-06-07T19:15:15.010Z,16.00
2019-06-07T19:17:44.869Z,15.90
2019-06-07T19:20:15.475Z,15.90
2019-06-07T19:22:45.163Z,15.90
2019-06-07T19:25:16.378Z,15.90
2019-06-07T19:27:46.109Z,15.90
2019-06-07T19:30:16.344Z,15.90
2019-06-07T19:32:48.887Z,15.90
2019-06-07T19:35:19.288Z,15.80
2019-06-07T19:37:49.354Z,15.70
2019-06-07T19:40:19.567Z,15.80
2019-06-07T19:42:49.123Z,15.70
2019-06-07T19:45:34.477Z,15.70
2019-06-07T19:47:54.635Z,15.70
2019-06-07T19:50:24.592Z,15.70
2019-06-07T19:52:55.016Z,15.60
2019-06-07T19:55:25.116Z,15.70
2019-06-07T19:57:55.483Z,15.60
2019-06-07T20:00:25.411Z,15.50
2019-06-07T20:02:55.817Z,15.40
2019-06-07T20:05:25.763Z,15.20
2019-06-07T20:07:56.429Z,15.20
2019-06-07T20:10:26.142Z,15.30
2019-06-07T20:12:56.545Z,15.30
2019-06-07T20:15:28.876Z,15.30
2019-06-07T20:17:59.231Z,15.20
2019-06-07T20:20:30.055Z,15.20
2019-06-07T20:23:00.940Z,15.10
2019-06-07T20:25:30.905Z,15.10
2019-06-07T20:28:01.408Z,15.10
2019-06-07T20:30:31.367Z,15.10
2019-06-07T20:33:01.851Z,15.00
2019-06-07T20:35:32.240Z,15.10
2019-06-07T20:38:03.990Z,15.10
2019-06-07T20:40:33.639Z,15.10
2019-06-07T20:43:03.576Z,15.10
2019-06-07T20:45:34.363Z,15.10
2019-06-07T20:48:04.370Z,15.10
2019-06-07T20:50:34.225Z,15.10
2019-06-07T20:53:05.169Z,15.00
2019-06-07T20:55:35.141Z,15.00
2019-06-07T20:58:05.527Z,14.90
2019-06-07T21:00:35.583Z,15.10
2019-06-07T21:03:07.244Z,15.20
2019-06-07T21:05:37.375Z,15.10
2019-06-07T21:08:10.638Z,15.10
2019-06-07T21:10:38.685Z,15.00
2019-06-07T21:13:08.536Z,15.10
2019-06-07T21:15:48.286Z,15.20
2019-06-07T21:18:19.139Z,15.20
2019-06-07T21:20:42.100Z,15.10
2019-06-07T21:23:12.102Z,15.20
2019-06-07T21:25:43.682Z,15.00
2019-06-07T21:28:13.625Z,15.00
2019-06-07T21:30:45.631Z,15.10
2019-06-07T21:33:15.555Z,15.00
2019-06-07T21:35:45.263Z,14.90
2019-06-07T21:38:14.906Z,14.90
2019-06-07T21:40:44.568Z,14.90
2019-06-07T21:43:14.341Z,14.90
2019-06-07T21:45:44.344Z,14.90
2019-06-07T21:48:14.495Z,15.00
2019-06-07T21:50:47.217Z,15.00
2019-06-07T21:53:16.897Z,14.90
2019-06-07T21:55:46.692Z,14.90
2019-06-07T21:58:16.522Z,14.90
2019-06-07T22:01:04.062Z,14.90
2019-06-07T22:03:33.936Z,15.00
2019-06-07T22:06:03.707Z,14.90
2019-06-07T22:08:34.378Z,14.90
2019-06-07T22:11:04.141Z,14.90
2019-06-07T22:13:33.872Z,14.80
2019-06-07T22:16:28.997Z,14.80
2019-06-07T22:18:54.280Z,14.80
2019-06-07T22:21:24.106Z,14.60
2019-06-07T22:23:53.989Z,14.60
2019-06-07T22:26:23.695Z,14.60
2019-06-07T22:28:53.537Z,14.50
2019-06-07T22:31:23.334Z,14.50
2019-06-07T22:33:53.253Z,14.50
2019-06-07T22:36:23.061Z,14.50
2019-06-07T22:38:52.816Z,14.50
2019-06-07T22:41:22.744Z,14.50
2019-06-07T22:43:52.635Z,14.40
2019-06-07T22:46:36.364Z,14.50
2019-06-07T22:48:53.626Z,14.50
2019-06-07T22:51:23.351Z,14.40
2019-06-07T22:53:53.297Z,14.50
2019-06-07T22:56:24.645Z,14.50
2019-06-07T22:58:54.388Z,14.60
2019-06-07T23:01:24.369Z,14.60
2019-06-07T23:03:54.187Z,14.60
2019-06-07T23:06:24.015Z,14.60
2019-06-07T23:08:53.655Z,14.70
2019-06-07T23:11:23.328Z,14.60
2019-06-07T23:13:54.533Z,14.60
2019-06-07T23:16:24.326Z,14.70
2019-06-07T23:18:53.870Z,14.70
2019-06-07T23:21:23.837Z,14.70
2019-06-07T23:23:53.466Z,14.70
2019-06-07T23:26:23.403Z,14.80
2019-06-07T23:28:53.117Z,14.70
2019-06-07T23:31:23.440Z,14.70
2019-06-07T23:33:53.084Z,14.80
2019-06-07T23:36:22.889Z,14.80
2019-06-07T23:38:53.151Z,14.90
2019-06-07T23:41:22.805Z,14.80
2019-06-07T23:43:52.636Z,14.90
2019-06-07T23:46:22.234Z,14.90
2019-06-07T23:48:55.105Z,14.80
2019-06-07T23:51:24.971Z,14.90
2019-06-07T23:53:54.620Z,14.80
2019-06-07T23:56:24.467Z,14.80
2019-06-07T23:58:54.979Z,14.70
